sensor_id;sensor_type;location;lat;lon;timestamp;P1;durP1;ratioP1;P2;durP2;ratioP2
61330;SDS011;57640;52.472;-1.950;2023-05-29T00:01:39;6.55;;;2.10;;
61330;SDS011;57640;52.472;-1.950;2023-05-29T00:04:45;5.50;;;1.85;;
61330;SDS011;57640;52.472;-1.950;2023-05-29T00:07:51;7.72;;;2.40;;
61330;SDS011;57640;52.472;-1.950;2023-05-29T00:10:59;7.13;;;1.90;;
61330;SDS011;57640;52.472;-1.950;2023-05-29T00:14:04;6.25;;;2.20;;
61330;SDS011;57640;52.472;-1.950;2023-05-29T00:17:09;7.10;;;2.28;;
61330;SDS011;57640;52.472;-1.950;2023-05-29T00:20:17;7.53;;;2.13;;
61330;SDS011;57640;52.472;-1.950;2023-05-29T00:23:23;4.90;;;2.00;;
61330;SDS011;57640;52.472;-1.950;2023-05-29T00:26:30;6.22;;;1.92;;
61330;SDS011;57640;52.472;-1.950;2023-05-29T00:29:36;6.28;;;2.20;;
61330;SDS011;57640;52.472;-1.950;2023-05-29T00:32:41;6.18;;;2.00;;
61330;SDS011;57640;52.472;-1.950;2023-05-29T00:35:48;6.53;;;1.90;;
61330;SDS011;57640;52.472;-1.950;2023-05-29T00:38:53;7.43;;;2.08;;
61330;SDS011;57640;52.472;-1.950;2023-05-29T00:42:01;4.65;;;2.08;;
61330;SDS011;57640;52.472;-1.950;2023-05-29T00:45:07;7.28;;;2.03;;
61330;SDS011;57640;52.472;-1.950;2023-05-29T00:48:12;6.25;;;2.03;;
61330;SDS011;57640;52.472;-1.950;2023-05-29T00:51:18;7.97;;;2.05;;
61330;SDS011;57640;52.472;-1.950;2023-05-29T00:54:25;4.45;;;1.90;;
61330;SDS011;57640;52.472;-1.950;2023-05-29T00:57:35;5.93;;;1.88;;
61330;SDS011;57640;52.472;-1.950;2023-05-29T01:00:43;5.93;;;1.77;;
61330;SDS011;57640;52.472;-1.950;2023-05-29T01:03:48;5.57;;;1.73;;
61330;SDS011;57640;52.472;-1.950;2023-05-29T01:06:55;4.20;;;1.58;;
61330;SDS011;57640;52.472;-1.950;2023-05-29T01:10:01;5.15;;;1.90;;
61330;SDS011;57640;52.472;-1.950;2023-05-29T01:13:10;4.65;;;1.95;;
61330;SDS011;57640;52.472;-1.950;2023-05-29T01:16:19;3.85;;;1.73;;
61330;SDS011;57640;52.472;-1.950;2023-05-29T01:19:27;7.63;;;1.90;;
61330;SDS011;57640;52.472;-1.950;2023-05-29T01:22:43;7.47;;;1.90;;
61330;SDS011;57640;52.472;-1.950;2023-05-29T01:25:58;5.30;;;1.88;;
61330;SDS011;57640;52.472;-1.950;2023-05-29T01:29:10;6.95;;;2.08;;
61330;SDS011;57640;52.472;-1.950;2023-05-29T01:32:18;7.20;;;2.10;;
61330;SDS011;57640;52.472;-1.950;2023-05-29T01:35:23;7.10;;;2.03;;
61330;SDS011;57640;52.472;-1.950;2023-05-29T01:38:29;5.95;;;2.22;;
61330;SDS011;57640;52.472;-1.950;2023-05-29T01:41:34;7.57;;;2.00;;
61330;SDS011;57640;52.472;-1.950;2023-05-29T01:44:42;6.07;;;2.10;;
61330;SDS011;57640;52.472;-1.950;2023-05-29T01:47:48;7.07;;;1.90;;
61330;SDS011;57640;52.472;-1.950;2023-05-29T01:50:54;6.40;;;2.58;;
61330;SDS011;57640;52.472;-1.950;2023-05-29T01:53:59;7.78;;;2.10;;
61330;SDS011;57640;52.472;-1.950;2023-05-29T01:57:05;6.70;;;1.90;;
61330;SDS011;57640;52.472;-1.950;2023-05-29T02:00:14;5.38;;;2.03;;
61330;SDS011;57640;52.472;-1.950;2023-05-29T02:03:21;5.90;;;2.50;;
61330;SDS011;57640;52.472;-1.950;2023-05-29T02:06:26;7.22;;;2.17;;
61330;SDS011;57640;52.472;-1.950;2023-05-29T02:09:34;8.40;;;2.55;;
61330;SDS011;57640;52.472;-1.950;2023-05-29T02:12:39;8.38;;;2.50;;
61330;SDS011;57640;52.472;-1.950;2023-05-29T02:15:47;6.72;;;2.20;;
61330;SDS011;57640;52.472;-1.950;2023-05-29T02:18:53;7.68;;;2.53;;
61330;SDS011;57640;52.472;-1.950;2023-05-29T02:21:59;7.90;;;2.35;;
61330;SDS011;57640;52.472;-1.950;2023-05-29T02:25:05;6.97;;;2.00;;
61330;SDS011;57640;52.472;-1.950;2023-05-29T02:28:11;5.82;;;2.10;;
61330;SDS011;57640;52.472;-1.950;2023-05-29T02:31:18;7.25;;;2.40;;
61330;SDS011;57640;52.472;-1.950;2023-05-29T02:34:24;5.97;;;2.30;;
61330;SDS011;57640;52.472;-1.950;2023-05-29T02:37:30;5.57;;;1.95;;
61330;SDS011;57640;52.472;-1.950;2023-05-29T02:40:36;6.97;;;2.17;;
61330;SDS011;57640;52.472;-1.950;2023-05-29T02:43:41;5.50;;;2.00;;
61330;SDS011;57640;52.472;-1.950;2023-05-29T02:46:49;8.52;;;2.28;;
61330;SDS011;57640;52.472;-1.950;2023-05-29T02:49:54;7.63;;;2.22;;
61330;SDS011;57640;52.472;-1.950;2023-05-29T02:52:59;6.35;;;2.28;;
61330;SDS011;57640;52.472;-1.950;2023-05-29T02:56:05;5.63;;;1.83;;
61330;SDS011;57640;52.472;-1.950;2023-05-29T02:59:11;7.95;;;2.15;;
61330;SDS011;57640;52.472;-1.950;2023-05-29T03:02:19;6.68;;;2.10;;
61330;SDS011;57640;52.472;-1.950;2023-05-29T03:05:24;6.47;;;2.13;;
61330;SDS011;57640;52.472;-1.950;2023-05-29T03:08:29;7.13;;;1.90;;
61330;SDS011;57640;52.472;-1.950;2023-05-29T03:11:35;5.63;;;1.98;;
61330;SDS011;57640;52.472;-1.950;2023-05-29T03:14:43;6.70;;;2.20;;
61330;SDS011;57640;52.472;-1.950;2023-05-29T03:17:51;8.88;;;1.90;;
61330;SDS011;57640;52.472;-1.950;2023-05-29T03:20:56;6.28;;;1.90;;
61330;SDS011;57640;52.472;-1.950;2023-05-29T03:24:01;5.38;;;2.00;;
61330;SDS011;57640;52.472;-1.950;2023-05-29T03:27:07;6.35;;;2.05;;
61330;SDS011;57640;52.472;-1.950;2023-05-29T03:30:13;9.18;;;1.70;;
61330;SDS011;57640;52.472;-1.950;2023-05-29T03:33:21;5.88;;;2.08;;
61330;SDS011;57640;52.472;-1.950;2023-05-29T03:36:26;5.75;;;2.00;;
61330;SDS011;57640;52.472;-1.950;2023-05-29T03:39:31;7.82;;;2.00;;
61330;SDS011;57640;52.472;-1.950;2023-05-29T03:42:37;5.03;;;1.83;;
61330;SDS011;57640;52.472;-1.950;2023-05-29T03:45:43;7.40;;;1.80;;
61330;SDS011;57640;52.472;-1.950;2023-05-29T03:48:51;4.10;;;1.70;;
61330;SDS011;57640;52.472;-1.950;2023-05-29T03:51:56;6.15;;;1.75;;
61330;SDS011;57640;52.472;-1.950;2023-05-29T03:55:01;6.00;;;2.10;;
61330;SDS011;57640;52.472;-1.950;2023-05-29T03:58:06;5.28;;;1.77;;
61330;SDS011;57640;52.472;-1.950;2023-05-29T04:01:14;8.25;;;2.00;;
61330;SDS011;57640;52.472;-1.950;2023-05-29T04:04:22;6.57;;;1.90;;
61330;SDS011;57640;52.472;-1.950;2023-05-29T04:07:27;5.35;;;1.80;;
61330;SDS011;57640;52.472;-1.950;2023-05-29T04:10:33;5.70;;;1.70;;
61330;SDS011;57640;52.472;-1.950;2023-05-29T04:13:39;6.25;;;1.80;;
61330;SDS011;57640;52.472;-1.950;2023-05-29T04:16:44;6.18;;;1.80;;
61330;SDS011;57640;52.472;-1.950;2023-05-29T04:19:52;6.95;;;1.90;;
61330;SDS011;57640;52.472;-1.950;2023-05-29T04:22:57;5.85;;;1.70;;
61330;SDS011;57640;52.472;-1.950;2023-05-29T04:26:03;5.65;;;1.83;;
61330;SDS011;57640;52.472;-1.950;2023-05-29T04:29:08;9.57;;;2.10;;
61330;SDS011;57640;52.472;-1.950;2023-05-29T04:32:15;6.43;;;1.92;;
61330;SDS011;57640;52.472;-1.950;2023-05-29T04:35:23;7.45;;;2.30;;
61330;SDS011;57640;52.472;-1.950;2023-05-29T04:38:30;6.72;;;1.85;;
61330;SDS011;57640;52.472;-1.950;2023-05-29T04:41:35;4.57;;;1.92;;
61330;SDS011;57640;52.472;-1.950;2023-05-29T04:44:42;6.60;;;1.83;;
61330;SDS011;57640;52.472;-1.950;2023-05-29T04:47:48;5.70;;;2.00;;
61330;SDS011;57640;52.472;-1.950;2023-05-29T04:50:57;5.65;;;1.90;;
61330;SDS011;57640;52.472;-1.950;2023-05-29T04:54:02;6.75;;;2.03;;
61330;SDS011;57640;52.472;-1.950;2023-05-29T04:57:08;5.40;;;2.05;;
61330;SDS011;57640;52.472;-1.950;2023-05-29T05:00:14;6.00;;;2.00;;
61330;SDS011;57640;52.472;-1.950;2023-05-29T05:03:20;6.60;;;2.00;;
61330;SDS011;57640;52.472;-1.950;2023-05-29T05:06:29;5.20;;;1.83;;
61330;SDS011;57640;52.472;-1.950;2023-05-29T05:09:34;3.78;;;1.90;;
61330;SDS011;57640;52.472;-1.950;2023-05-29T05:12:40;8.10;;;2.38;;
61330;SDS011;57640;52.472;-1.950;2023-05-29T05:15:45;8.02;;;1.77;;
61330;SDS011;57640;52.472;-1.950;2023-05-29T05:18:50;7.15;;;2.10;;
61330;SDS011;57640;52.472;-1.950;2023-05-29T05:21:58;6.90;;;2.10;;
61330;SDS011;57640;52.472;-1.950;2023-05-29T05:25:04;5.60;;;2.17;;
61330;SDS011;57640;52.472;-1.950;2023-05-29T05:28:10;4.85;;;1.85;;
61330;SDS011;57640;52.472;-1.950;2023-05-29T05:31:15;9.90;;;2.20;;
61330;SDS011;57640;52.472;-1.950;2023-05-29T05:34:20;5.72;;;2.20;;
61330;SDS011;57640;52.472;-1.950;2023-05-29T05:37:28;6.40;;;1.98;;
61330;SDS011;57640;52.472;-1.950;2023-05-29T05:40:34;5.53;;;1.80;;
61330;SDS011;57640;52.472;-1.950;2023-05-29T05:43:39;5.70;;;2.10;;
61330;SDS011;57640;52.472;-1.950;2023-05-29T05:46:44;7.28;;;2.10;;
61330;SDS011;57640;52.472;-1.950;2023-05-29T05:49:50;5.97;;;2.10;;
61330;SDS011;57640;52.472;-1.950;2023-05-29T05:52:59;5.38;;;1.90;;
61330;SDS011;57640;52.472;-1.950;2023-05-29T05:56:04;8.82;;;2.15;;
61330;SDS011;57640;52.472;-1.950;2023-05-29T05:59:09;4.90;;;1.70;;
61330;SDS011;57640;52.472;-1.950;2023-05-29T06:02:15;5.53;;;1.92;;
61330;SDS011;57640;52.472;-1.950;2023-05-29T06:05:20;7.95;;;2.28;;
61330;SDS011;57640;52.472;-1.950;2023-05-29T06:08:28;8.25;;;2.17;;
61330;SDS011;57640;52.472;-1.950;2023-05-29T06:11:33;6.60;;;2.28;;
61330;SDS011;57640;52.472;-1.950;2023-05-29T06:14:39;4.57;;;2.33;;
61330;SDS011;57640;52.472;-1.950;2023-05-29T06:17:44;5.93;;;2.50;;
61330;SDS011;57640;52.472;-1.950;2023-05-29T06:20:50;5.72;;;2.70;;
61330;SDS011;57640;52.472;-1.950;2023-05-29T06:23:58;6.32;;;2.30;;
61330;SDS011;57640;52.472;-1.950;2023-05-29T06:27:04;9.93;;;2.70;;
61330;SDS011;57640;52.472;-1.950;2023-05-29T06:30:11;7.60;;;2.75;;
61330;SDS011;57640;52.472;-1.950;2023-05-29T06:33:16;7.28;;;2.60;;
61330;SDS011;57640;52.472;-1.950;2023-05-29T06:36:22;4.72;;;2.60;;
61330;SDS011;57640;52.472;-1.950;2023-05-29T06:39:30;6.03;;;2.83;;
61330;SDS011;57640;52.472;-1.950;2023-05-29T06:42:35;5.75;;;2.72;;
61330;SDS011;57640;52.472;-1.950;2023-05-29T06:45:41;6.57;;;2.50;;
61330;SDS011;57640;52.472;-1.950;2023-05-29T06:48:46;3.63;;;2.33;;
61330;SDS011;57640;52.472;-1.950;2023-05-29T06:51:51;4.32;;;2.20;;
61330;SDS011;57640;52.472;-1.950;2023-05-29T06:54:59;4.47;;;2.08;;
61330;SDS011;57640;52.472;-1.950;2023-05-29T06:58:04;3.78;;;1.95;;
61330;SDS011;57640;52.472;-1.950;2023-05-29T07:01:10;5.35;;;2.38;;
61330;SDS011;57640;52.472;-1.950;2023-05-29T07:04:15;3.58;;;1.90;;
61330;SDS011;57640;52.472;-1.950;2023-05-29T07:07:20;4.65;;;2.28;;
61330;SDS011;57640;52.472;-1.950;2023-05-29T07:10:28;4.90;;;2.08;;
61330;SDS011;57640;52.472;-1.950;2023-05-29T07:13:33;6.50;;;2.42;;
61330;SDS011;57640;52.472;-1.950;2023-05-29T07:16:39;4.45;;;2.20;;
61330;SDS011;57640;52.472;-1.950;2023-05-29T07:19:44;4.68;;;2.10;;
61330;SDS011;57640;52.472;-1.950;2023-05-29T07:22:51;5.25;;;2.10;;
61330;SDS011;57640;52.472;-1.950;2023-05-29T07:25:59;4.63;;;1.77;;
61330;SDS011;57640;52.472;-1.950;2023-05-29T07:29:04;4.47;;;2.08;;
61330;SDS011;57640;52.472;-1.950;2023-05-29T07:32:09;4.07;;;1.98;;
61330;SDS011;57640;52.472;-1.950;2023-05-29T07:35:15;4.47;;;2.05;;
61330;SDS011;57640;52.472;-1.950;2023-05-29T07:38:20;4.40;;;1.98;;
61330;SDS011;57640;52.472;-1.950;2023-05-29T07:41:28;3.70;;;1.80;;
61330;SDS011;57640;52.472;-1.950;2023-05-29T07:44:33;5.07;;;1.92;;
61330;SDS011;57640;52.472;-1.950;2023-05-29T07:47:38;3.95;;;1.80;;
61330;SDS011;57640;52.472;-1.950;2023-05-29T07:50:44;7.25;;;2.03;;
61330;SDS011;57640;52.472;-1.950;2023-05-29T07:53:50;4.35;;;1.98;;
61330;SDS011;57640;52.472;-1.950;2023-05-29T07:56:58;4.40;;;1.80;;
61330;SDS011;57640;52.472;-1.950;2023-05-29T08:00:05;5.28;;;1.65;;
61330;SDS011;57640;52.472;-1.950;2023-05-29T08:03:10;4.63;;;1.90;;
61330;SDS011;57640;52.472;-1.950;2023-05-29T08:06:16;4.45;;;1.90;;
61330;SDS011;57640;52.472;-1.950;2023-05-29T08:09:21;4.20;;;1.90;;
61330;SDS011;57640;52.472;-1.950;2023-05-29T08:12:29;4.00;;;1.80;;
61330;SDS011;57640;52.472;-1.950;2023-05-29T08:15:36;4.70;;;1.98;;
61330;SDS011;57640;52.472;-1.950;2023-05-29T08:18:42;4.03;;;1.73;;
61330;SDS011;57640;52.472;-1.950;2023-05-29T08:21:47;4.03;;;1.60;;
61330;SDS011;57640;52.472;-1.950;2023-05-29T08:24:53;3.95;;;2.00;;
61330;SDS011;57640;52.472;-1.950;2023-05-29T08:28:00;3.92;;;1.88;;
61330;SDS011;57640;52.472;-1.950;2023-05-29T08:31:06;2.72;;;1.60;;
61330;SDS011;57640;52.472;-1.950;2023-05-29T08:34:11;3.72;;;1.80;;
61330;SDS011;57640;52.472;-1.950;2023-05-29T08:37:16;4.85;;;1.60;;
61330;SDS011;57640;52.472;-1.950;2023-05-29T08:40:22;3.20;;;1.80;;
61330;SDS011;57640;52.472;-1.950;2023-05-29T08:43:31;3.75;;;1.73;;
61330;SDS011;57640;52.472;-1.950;2023-05-29T08:46:36;3.42;;;1.50;;
61330;SDS011;57640;52.472;-1.950;2023-05-29T08:49:43;2.65;;;1.30;;
61330;SDS011;57640;52.472;-1.950;2023-05-29T08:52:48;3.70;;;1.58;;
61330;SDS011;57640;52.472;-1.950;2023-05-29T08:55:53;4.65;;;1.70;;
61330;SDS011;57640;52.472;-1.950;2023-05-29T08:59:02;3.75;;;1.55;;
61330;SDS011;57640;52.472;-1.950;2023-05-29T09:05:13;3.13;;;1.63;;
61330;SDS011;57640;52.472;-1.950;2023-05-29T09:08:19;4.43;;;1.73;;
61330;SDS011;57640;52.472;-1.950;2023-05-29T09:11:24;3.58;;;1.70;;
61330;SDS011;57640;52.472;-1.950;2023-05-29T09:14:36;3.65;;;1.60;;
61330;SDS011;57640;52.472;-1.950;2023-05-29T09:17:43;2.13;;;1.30;;
61330;SDS011;57640;52.472;-1.950;2023-05-29T09:20:48;2.85;;;1.65;;
61330;SDS011;57640;52.472;-1.950;2023-05-29T09:23:54;2.63;;;1.60;;
61330;SDS011;57640;52.472;-1.950;2023-05-29T09:26:59;3.85;;;1.60;;
61330;SDS011;57640;52.472;-1.950;2023-05-29T09:30:09;2.20;;;1.40;;
61330;SDS011;57640;52.472;-1.950;2023-05-29T09:33:15;3.38;;;1.50;;
61330;SDS011;57640;52.472;-1.950;2023-05-29T09:36:20;2.78;;;1.42;;
61330;SDS011;57640;52.472;-1.950;2023-05-29T09:39:27;3.70;;;1.40;;
61330;SDS011;57640;52.472;-1.950;2023-05-29T09:42:33;3.50;;;1.67;;
61330;SDS011;57640;52.472;-1.950;2023-05-29T09:45:41;3.63;;;1.50;;
61330;SDS011;57640;52.472;-1.950;2023-05-29T09:48:47;5.05;;;1.77;;
61330;SDS011;57640;52.472;-1.950;2023-05-29T09:51:53;3.33;;;1.50;;
61330;SDS011;57640;52.472;-1.950;2023-05-29T09:54:58;4.25;;;1.70;;
61330;SDS011;57640;52.472;-1.950;2023-05-29T09:58:04;3.65;;;1.50;;
61330;SDS011;57640;52.472;-1.950;2023-05-29T10:01:14;3.30;;;1.77;;
61330;SDS011;57640;52.472;-1.950;2023-05-29T10:04:20;3.25;;;1.73;;
61330;SDS011;57640;52.472;-1.950;2023-05-29T10:07:27;2.83;;;1.77;;
61330;SDS011;57640;52.472;-1.950;2023-05-29T10:10:34;4.15;;;1.50;;
61330;SDS011;57640;52.472;-1.950;2023-05-29T10:13:40;3.75;;;1.70;;
61330;SDS011;57640;52.472;-1.950;2023-05-29T10:16:53;3.22;;;1.50;;
61330;SDS011;57640;52.472;-1.950;2023-05-29T10:20:01;3.97;;;1.50;;
61330;SDS011;57640;52.472;-1.950;2023-05-29T10:23:06;4.05;;;1.75;;
61330;SDS011;57640;52.472;-1.950;2023-05-29T10:26:14;4.50;;;1.77;;
61330;SDS011;57640;52.472;-1.950;2023-05-29T10:29:23;4.10;;;1.77;;
61330;SDS011;57640;52.472;-1.950;2023-05-29T10:32:36;3.38;;;1.50;;
61330;SDS011;57640;52.472;-1.950;2023-05-29T10:35:46;4.13;;;1.77;;
61330;SDS011;57640;52.472;-1.950;2023-05-29T10:38:52;3.63;;;1.38;;
61330;SDS011;57640;52.472;-1.950;2023-05-29T10:41:57;3.75;;;1.63;;
61330;SDS011;57640;52.472;-1.950;2023-05-29T10:45:04;3.63;;;1.60;;
61330;SDS011;57640;52.472;-1.950;2023-05-29T10:51:33;4.68;;;1.75;;
61330;SDS011;57640;52.472;-1.950;2023-05-29T10:54:52;3.72;;;2.00;;
61330;SDS011;57640;52.472;-1.950;2023-05-29T10:57:59;3.63;;;1.60;;
61330;SDS011;57640;52.472;-1.950;2023-05-29T11:01:09;5.28;;;1.88;;
61330;SDS011;57640;52.472;-1.950;2023-05-29T11:04:27;4.43;;;1.75;;
61330;SDS011;57640;52.472;-1.950;2023-05-29T11:07:39;3.45;;;1.80;;
61330;SDS011;57640;52.472;-1.950;2023-05-29T11:10:56;3.58;;;1.77;;
61330;SDS011;57640;52.472;-1.950;2023-05-29T11:14:02;3.95;;;1.55;;
61330;SDS011;57640;52.472;-1.950;2023-05-29T11:17:09;3.53;;;1.70;;
61330;SDS011;57640;52.472;-1.950;2023-05-29T11:20:36;4.43;;;1.90;;
61330;SDS011;57640;52.472;-1.950;2023-05-29T11:23:44;4.72;;;1.80;;
61330;SDS011;57640;52.472;-1.950;2023-05-29T11:26:53;4.53;;;2.00;;
61330;SDS011;57640;52.472;-1.950;2023-05-29T11:29:58;4.72;;;1.80;;
61330;SDS011;57640;52.472;-1.950;2023-05-29T11:33:04;3.08;;;1.90;;
61330;SDS011;57640;52.472;-1.950;2023-05-29T11:36:10;3.33;;;1.80;;
61330;SDS011;57640;52.472;-1.950;2023-05-29T11:39:18;4.13;;;1.88;;
61330;SDS011;57640;52.472;-1.950;2023-05-29T11:42:24;3.08;;;1.73;;
61330;SDS011;57640;52.472;-1.950;2023-05-29T11:45:31;5.50;;;2.00;;
61330;SDS011;57640;52.472;-1.950;2023-05-29T11:48:44;5.43;;;2.20;;
61330;SDS011;57640;52.472;-1.950;2023-05-29T11:51:49;5.43;;;2.22;;
61330;SDS011;57640;52.472;-1.950;2023-05-29T11:54:57;4.32;;;2.10;;
61330;SDS011;57640;52.472;-1.950;2023-05-29T11:58:10;5.90;;;1.95;;
61330;SDS011;57640;52.472;-1.950;2023-05-29T12:01:16;3.72;;;1.98;;
61330;SDS011;57640;52.472;-1.950;2023-05-29T12:04:23;3.70;;;2.05;;
61330;SDS011;57640;52.472;-1.950;2023-05-29T12:07:28;4.03;;;2.22;;
61330;SDS011;57640;52.472;-1.950;2023-05-29T12:10:36;4.28;;;2.42;;
61330;SDS011;57640;52.472;-1.950;2023-05-29T12:13:42;3.97;;;2.20;;
61330;SDS011;57640;52.472;-1.950;2023-05-29T12:16:47;5.15;;;2.13;;
61330;SDS011;57640;52.472;-1.950;2023-05-29T12:19:52;4.80;;;2.40;;
61330;SDS011;57640;52.472;-1.950;2023-05-29T12:22:59;6.43;;;2.38;;
61330;SDS011;57640;52.472;-1.950;2023-05-29T12:26:07;4.93;;;2.20;;
61330;SDS011;57640;52.472;-1.950;2023-05-29T12:29:14;5.40;;;2.40;;
61330;SDS011;57640;52.472;-1.950;2023-05-29T12:32:20;4.95;;;2.50;;
61330;SDS011;57640;52.472;-1.950;2023-05-29T12:35:25;5.95;;;2.63;;
61330;SDS011;57640;52.472;-1.950;2023-05-29T12:38:32;5.10;;;2.58;;
61330;SDS011;57640;52.472;-1.950;2023-05-29T12:41:41;5.20;;;2.45;;
61330;SDS011;57640;52.472;-1.950;2023-05-29T12:44:46;4.57;;;2.50;;
61330;SDS011;57640;52.472;-1.950;2023-05-29T12:47:52;4.22;;;2.45;;
61330;SDS011;57640;52.472;-1.950;2023-05-29T12:50:58;5.05;;;2.50;;
61330;SDS011;57640;52.472;-1.950;2023-05-29T12:54:03;5.63;;;2.42;;
61330;SDS011;57640;52.472;-1.950;2023-05-29T12:57:12;5.07;;;2.38;;
61330;SDS011;57640;52.472;-1.950;2023-05-29T13:00:17;4.47;;;2.28;;
61330;SDS011;57640;52.472;-1.950;2023-05-29T13:03:23;4.35;;;2.15;;
61330;SDS011;57640;52.472;-1.950;2023-05-29T13:06:28;5.00;;;2.22;;
61330;SDS011;57640;52.472;-1.950;2023-05-29T13:09:33;4.75;;;2.38;;
61330;SDS011;57640;52.472;-1.950;2023-05-29T13:12:49;4.70;;;2.00;;
61330;SDS011;57640;52.472;-1.950;2023-05-29T13:15:56;4.95;;;2.50;;
61330;SDS011;57640;52.472;-1.950;2023-05-29T13:19:02;4.07;;;2.20;;
61330;SDS011;57640;52.472;-1.950;2023-05-29T13:22:07;5.60;;;2.60;;
61330;SDS011;57640;52.472;-1.950;2023-05-29T13:25:17;4.25;;;2.13;;
61330;SDS011;57640;52.472;-1.950;2023-05-29T13:28:28;2.80;;;2.05;;
61330;SDS011;57640;52.472;-1.950;2023-05-29T13:31:33;4.78;;;2.20;;
61330;SDS011;57640;52.472;-1.950;2023-05-29T13:34:39;5.07;;;2.25;;
61330;SDS011;57640;52.472;-1.950;2023-05-29T13:37:44;5.43;;;2.55;;
61330;SDS011;57640;52.472;-1.950;2023-05-29T13:40:49;5.20;;;2.30;;
61330;SDS011;57640;52.472;-1.950;2023-05-29T13:43:58;4.85;;;2.45;;
61330;SDS011;57640;52.472;-1.950;2023-05-29T13:47:04;4.72;;;2.53;;
61330;SDS011;57640;52.472;-1.950;2023-05-29T13:50:10;6.43;;;2.30;;
61330;SDS011;57640;52.472;-1.950;2023-05-29T13:53:15;4.53;;;2.13;;
61330;SDS011;57640;52.472;-1.950;2023-05-29T13:56:20;5.00;;;2.40;;
61330;SDS011;57640;52.472;-1.950;2023-05-29T13:59:31;3.70;;;2.30;;
61330;SDS011;57640;52.472;-1.950;2023-05-29T14:02:37;5.13;;;2.10;;
61330;SDS011;57640;52.472;-1.950;2023-05-29T14:05:42;4.95;;;2.33;;
61330;SDS011;57640;52.472;-1.950;2023-05-29T14:08:47;7.20;;;2.30;;
61330;SDS011;57640;52.472;-1.950;2023-05-29T14:11:53;4.43;;;2.10;;
61330;SDS011;57640;52.472;-1.950;2023-05-29T14:15:01;4.03;;;2.20;;
61330;SDS011;57640;52.472;-1.950;2023-05-29T14:18:06;4.65;;;2.50;;
61330;SDS011;57640;52.472;-1.950;2023-05-29T14:21:11;6.45;;;2.28;;
61330;SDS011;57640;52.472;-1.950;2023-05-29T14:24:17;6.35;;;2.22;;
61330;SDS011;57640;52.472;-1.950;2023-05-29T14:27:22;4.00;;;2.22;;
61330;SDS011;57640;52.472;-1.950;2023-05-29T14:30:30;5.18;;;2.35;;
61330;SDS011;57640;52.472;-1.950;2023-05-29T14:33:35;5.38;;;2.45;;
61330;SDS011;57640;52.472;-1.950;2023-05-29T14:36:41;5.28;;;2.35;;
61330;SDS011;57640;52.472;-1.950;2023-05-29T14:39:47;6.35;;;2.88;;
61330;SDS011;57640;52.472;-1.950;2023-05-29T14:42:52;5.95;;;2.50;;
61330;SDS011;57640;52.472;-1.950;2023-05-29T14:46:00;8.45;;;2.78;;
61330;SDS011;57640;52.472;-1.950;2023-05-29T14:49:05;4.80;;;2.30;;
61330;SDS011;57640;52.472;-1.950;2023-05-29T14:52:11;4.50;;;2.47;;
61330;SDS011;57640;52.472;-1.950;2023-05-29T14:55:16;5.70;;;2.20;;
61330;SDS011;57640;52.472;-1.950;2023-05-29T14:58:22;4.25;;;2.47;;
61330;SDS011;57640;52.472;-1.950;2023-05-29T15:01:30;5.53;;;2.80;;
61330;SDS011;57640;52.472;-1.950;2023-05-29T15:04:35;4.97;;;2.67;;
61330;SDS011;57640;52.472;-1.950;2023-05-29T15:07:40;5.32;;;2.28;;
61330;SDS011;57640;52.472;-1.950;2023-05-29T15:10:46;5.60;;;2.40;;
61330;SDS011;57640;52.472;-1.950;2023-05-29T15:13:51;5.82;;;2.30;;
61330;SDS011;57640;52.472;-1.950;2023-05-29T15:17:00;6.15;;;2.72;;
61330;SDS011;57640;52.472;-1.950;2023-05-29T15:20:06;6.32;;;2.60;;
61330;SDS011;57640;52.472;-1.950;2023-05-29T15:23:11;5.13;;;2.20;;
61330;SDS011;57640;52.472;-1.950;2023-05-29T15:26:17;4.82;;;2.20;;
61330;SDS011;57640;52.472;-1.950;2023-05-29T15:29:23;5.35;;;2.35;;
61330;SDS011;57640;52.472;-1.950;2023-05-29T15:32:30;6.70;;;2.53;;
61330;SDS011;57640;52.472;-1.950;2023-05-29T15:35:36;5.85;;;2.40;;
61330;SDS011;57640;52.472;-1.950;2023-05-29T15:38:43;6.45;;;2.60;;
61330;SDS011;57640;52.472;-1.950;2023-05-29T15:41:48;3.90;;;2.20;;
61330;SDS011;57640;52.472;-1.950;2023-05-29T15:44:53;5.80;;;2.47;;
61330;SDS011;57640;52.472;-1.950;2023-05-29T15:48:01;5.63;;;2.00;;
61330;SDS011;57640;52.472;-1.950;2023-05-29T15:51:07;4.20;;;2.30;;
61330;SDS011;57640;52.472;-1.950;2023-05-29T15:54:26;4.68;;;2.10;;
61330;SDS011;57640;52.472;-1.950;2023-05-29T16:01:02;4.90;;;2.10;;
61330;SDS011;57640;52.472;-1.950;2023-05-29T16:04:10;3.70;;;2.20;;
61330;SDS011;57640;52.472;-1.950;2023-05-29T16:07:16;4.72;;;2.30;;
61330;SDS011;57640;52.472;-1.950;2023-05-29T16:10:21;5.28;;;2.25;;
61330;SDS011;57640;52.472;-1.950;2023-05-29T16:13:27;4.28;;;2.10;;
61330;SDS011;57640;52.472;-1.950;2023-05-29T16:16:35;5.57;;;2.40;;
61330;SDS011;57640;52.472;-1.950;2023-05-29T16:19:44;6.43;;;1.98;;
61330;SDS011;57640;52.472;-1.950;2023-05-29T16:22:50;4.00;;;2.20;;
61330;SDS011;57640;52.472;-1.950;2023-05-29T16:25:55;5.60;;;2.45;;
61330;SDS011;57640;52.472;-1.950;2023-05-29T16:29:01;4.60;;;2.05;;
61330;SDS011;57640;52.472;-1.950;2023-05-29T16:32:07;5.25;;;2.10;;
61330;SDS011;57640;52.472;-1.950;2023-05-29T16:35:15;8.20;;;2.40;;
61330;SDS011;57640;52.472;-1.950;2023-05-29T16:38:20;5.07;;;2.15;;
61330;SDS011;57640;52.472;-1.950;2023-05-29T16:41:26;5.72;;;2.30;;
61330;SDS011;57640;52.472;-1.950;2023-05-29T16:44:31;4.95;;;2.15;;
61330;SDS011;57640;52.472;-1.950;2023-05-29T16:47:37;4.95;;;2.30;;
61330;SDS011;57640;52.472;-1.950;2023-05-29T16:50:45;5.65;;;2.50;;
61330;SDS011;57640;52.472;-1.950;2023-05-29T16:53:51;5.32;;;2.33;;
61330;SDS011;57640;52.472;-1.950;2023-05-29T16:56:56;6.38;;;2.20;;
61330;SDS011;57640;52.472;-1.950;2023-05-29T17:00:02;6.03;;;2.10;;
61330;SDS011;57640;52.472;-1.950;2023-05-29T17:03:07;5.05;;;2.10;;
61330;SDS011;57640;52.472;-1.950;2023-05-29T17:06:16;4.53;;;2.30;;
61330;SDS011;57640;52.472;-1.950;2023-05-29T17:09:22;3.85;;;1.90;;
61330;SDS011;57640;52.472;-1.950;2023-05-29T17:12:29;4.47;;;2.17;;
61330;SDS011;57640;52.472;-1.950;2023-05-29T17:15:34;4.20;;;2.20;;
61330;SDS011;57640;52.472;-1.950;2023-05-29T17:18:39;4.90;;;1.95;;
61330;SDS011;57640;52.472;-1.950;2023-05-29T17:21:47;5.43;;;2.10;;
61330;SDS011;57640;52.472;-1.950;2023-05-29T17:28:00;4.60;;;2.20;;
61330;SDS011;57640;52.472;-1.950;2023-05-29T17:31:05;4.70;;;2.10;;
61330;SDS011;57640;52.472;-1.950;2023-05-29T17:34:11;6.28;;;2.47;;
61330;SDS011;57640;52.472;-1.950;2023-05-29T17:37:19;5.90;;;2.30;;
61330;SDS011;57640;52.472;-1.950;2023-05-29T17:40:24;4.93;;;2.00;;
61330;SDS011;57640;52.472;-1.950;2023-05-29T17:43:30;7.55;;;2.17;;
61330;SDS011;57640;52.472;-1.950;2023-05-29T17:46:35;5.88;;;2.35;;
61330;SDS011;57640;52.472;-1.950;2023-05-29T17:49:41;5.95;;;2.65;;
61330;SDS011;57640;52.472;-1.950;2023-05-29T17:52:49;6.32;;;2.33;;
61330;SDS011;57640;52.472;-1.950;2023-05-29T17:55:54;8.60;;;2.78;;
61330;SDS011;57640;52.472;-1.950;2023-05-29T17:58:59;11.18;;;3.17;;
61330;SDS011;57640;52.472;-1.950;2023-05-29T18:02:05;10.05;;;2.70;;
61330;SDS011;57640;52.472;-1.950;2023-05-29T18:05:11;8.63;;;2.40;;
61330;SDS011;57640;52.472;-1.950;2023-05-29T18:08:19;5.60;;;2.33;;
61330;SDS011;57640;52.472;-1.950;2023-05-29T18:14:30;5.13;;;2.17;;
61330;SDS011;57640;52.472;-1.950;2023-05-29T18:17:35;5.82;;;2.10;;
61330;SDS011;57640;52.472;-1.950;2023-05-29T18:20:41;5.13;;;2.38;;
61330;SDS011;57640;52.472;-1.950;2023-05-29T18:23:49;7.03;;;2.28;;
61330;SDS011;57640;52.472;-1.950;2023-05-29T18:26:55;5.35;;;2.13;;
61330;SDS011;57640;52.472;-1.950;2023-05-29T18:30:00;5.55;;;2.05;;
61330;SDS011;57640;52.472;-1.950;2023-05-29T18:33:05;5.75;;;1.92;;
61330;SDS011;57640;52.472;-1.950;2023-05-29T18:36:11;5.30;;;1.95;;
61330;SDS011;57640;52.472;-1.950;2023-05-29T18:39:19;5.57;;;2.15;;
61330;SDS011;57640;52.472;-1.950;2023-05-29T18:42:25;4.47;;;1.88;;